sensor_id;sensor_type;location;lat;lon;timestamp;pressure;altitude;pressure_sealevel;temperature;humidity
12073;BME280;6098;49.004;8.372;2023-12-29T00:04:02;100473.38;;;10.92;87.96
12073;BME280;6098;49.004;8.372;2023-12-29T00:18:53;100481.61;;;10.85;89.68
12073;BME280;6098;49.004;8.372;2023-12-29T00:33:44;100464.88;;;10.61;93.51
12073;BME280;6098;49.004;8.372;2023-12-29T00:48:35;100458.59;;;10.51;93.93
12073;BME280;6098;49.004;8.372;2023-12-29T01:03:27;100431.31;;;10.59;91.97
12073;BME280;6098;49.004;8.372;2023-12-29T01:18:18;100435.32;;;10.48;91.87
12073;BME280;6098;49.004;8.372;2023-12-29T01:33:10;100433.94;;;10.37;91.94
12073;BME280;6098;49.004;8.372;2023-12-29T01:48:02;100436.02;;;10.41;90.32
12073;BME280;6098;49.004;8.372;2023-12-29T02:02:54;100419.06;;;10.45;90.43
12073;BME280;6098;49.004;8.372;2023-12-29T02:17:46;100398.98;;;10.51;89.92
12073;BME280;6098;49.004;8.372;2023-12-29T02:32:39;100389.64;;;10.52;90.23
12073;BME280;6098;49.004;8.372;2023-12-29T02:47:29;100361.94;;;10.49;90.07
12073;BME280;6098;49.004;8.372;2023-12-29T03:02:21;100369.25;;;10.43;90.16
12073;BME280;6098;49.004;8.372;2023-12-29T03:17:13;100371.95;;;10.42;91.27
12073;BME280;6098;49.004;8.372;2023-12-29T03:32:05;100365.47;;;10.50;93.18
12073;BME280;6098;49.004;8.372;2023-12-29T03:46:57;100363.43;;;10.45;94.00
12073;BME280;6098;49.004;8.372;2023-12-29T04:01:49;100374.03;;;10.45;92.27
12073;BME280;6098;49.004;8.372;2023-12-29T04:16:42;100362.46;;;10.47;92.85
12073;BME280;6098;49.004;8.372;2023-12-29T04:31:33;100367.61;;;10.51;92.57
12073;BME280;6098;49.004;8.372;2023-12-29T04:46:25;100382.11;;;10.53;91.88
12073;BME280;6098;49.004;8.372;2023-12-29T05:01:17;100385.86;;;10.48;92.71
12073;BME280;6098;49.004;8.372;2023-12-29T05:16:09;100385.73;;;10.39;97.42
12073;BME280;6098;49.004;8.372;2023-12-29T05:30:59;100374.61;;;10.29;97.92
12073;BME280;6098;49.004;8.372;2023-12-29T05:45:49;100359.86;;;10.23;97.21
12073;BME280;6098;49.004;8.372;2023-12-29T06:00:43;100355.98;;;10.08;97.12
12073;BME280;6098;49.004;8.372;2023-12-29T06:15:35;100356.84;;;9.97;97.68
12073;BME280;6098;49.004;8.372;2023-12-29T06:30:27;100363.79;;;9.99;97.69
12073;BME280;6098;49.004;8.372;2023-12-29T06:45:20;100356.72;;;10.00;98.02
12073;BME280;6098;49.004;8.372;2023-12-29T07:00:13;100345.45;;;10.06;97.76
12073;BME280;6098;49.004;8.372;2023-12-29T07:15:06;100364.34;;;10.10;98.03
12073;BME280;6098;49.004;8.372;2023-12-29T07:29:59;100356.92;;;10.19;98.37
12073;BME280;6098;49.004;8.372;2023-12-29T07:44:54;100356.48;;;10.31;98.26
12073;BME280;6098;49.004;8.372;2023-12-29T07:59:45;100364.52;;;10.40;98.11
12073;BME280;6098;49.004;8.372;2023-12-29T08:14:37;100367.17;;;10.51;96.64
12073;BME280;6098;49.004;8.372;2023-12-29T08:29:28;100380.13;;;10.58;95.61
12073;BME280;6098;49.004;8.372;2023-12-29T08:44:20;100392.72;;;10.64;94.71
12073;BME280;6098;49.004;8.372;2023-12-29T08:59:11;100400.08;;;10.79;94.13
12073;BME280;6098;49.004;8.372;2023-12-29T09:14:03;100389.66;;;10.97;93.18
12073;BME280;6098;49.004;8.372;2023-12-29T09:28:55;100401.90;;;11.32;91.82
12073;BME280;6098;49.004;8.372;2023-12-29T09:43:50;100411.38;;;11.48;90.12
12073;BME280;6098;49.004;8.372;2023-12-29T09:58:46;100393.64;;;11.70;88.37
12073;BME280;6098;49.004;8.372;2023-12-29T10:13:36;100400.20;;;11.83;86.66
12073;BME280;6098;49.004;8.372;2023-12-29T10:28:29;100381.06;;;12.14;84.81
12073;BME280;6098;49.004;8.372;2023-12-29T10:43:23;100350.41;;;12.26;83.80
12073;BME280;6098;49.004;8.372;2023-12-29T10:58:19;100335.52;;;12.50;81.49
12073;BME280;6098;49.004;8.372;2023-12-29T11:13:11;100308.91;;;12.69;79.24
12073;BME280;6098;49.004;8.372;2023-12-29T11:28:04;100312.30;;;12.99;75.49
12073;BME280;6098;49.004;8.372;2023-12-29T11:42:57;100300.73;;;13.35;73.13
12073;BME280;6098;49.004;8.372;2023-12-29T11:57:49;100297.11;;;13.28;73.39
12073;BME280;6098;49.004;8.372;2023-12-29T12:12:40;100287.59;;;13.15;74.19
12073;BME280;6098;49.004;8.372;2023-12-29T12:27:37;100283.55;;;13.07;74.79
12073;BME280;6098;49.004;8.372;2023-12-29T12:42:29;100272.25;;;13.11;76.00
12073;BME280;6098;49.004;8.372;2023-12-29T12:57:21;100280.16;;;13.13;75.31
12073;BME280;6098;49.004;8.372;2023-12-29T13:12:14;100289.02;;;13.21;70.41
12073;BME280;6098;49.004;8.372;2023-12-29T13:27:06;100299.45;;;13.43;69.08
12073;BME280;6098;49.004;8.372;2023-12-29T13:41:57;100272.19;;;13.29;70.46
12073;BME280;6098;49.004;8.372;2023-12-29T13:56:54;100268.77;;;13.26;68.91
12073;BME280;6098;49.004;8.372;2023-12-29T14:11:49;100284.60;;;13.12;65.44
12073;BME280;6098;49.004;8.372;2023-12-29T14:41:48;100302.01;;;12.92;64.04
12073;BME280;6098;49.004;8.372;2023-12-29T14:56:39;100302.86;;;12.75;62.89
12073;BME280;6098;49.004;8.372;2023-12-29T15:11:32;100311.86;;;12.63;63.36
12073;BME280;6098;49.004;8.372;2023-12-29T15:26:22;100311.34;;;12.46;63.77
12073;BME280;6098;49.004;8.372;2023-12-29T15:41:27;100306.23;;;12.42;63.51
12073;BME280;6098;49.004;8.372;2023-12-29T15:56:18;100291.48;;;12.35;63.25
12073;BME280;6098;49.004;8.372;2023-12-29T16:11:18;100267.95;;;12.36;63.64
12073;BME280;6098;49.004;8.372;2023-12-29T16:26:08;100268.56;;;12.33;63.90
12073;BME280;6098;49.004;8.372;2023-12-29T16:41:06;100271.05;;;12.27;62.91
12073;BME280;6098;49.004;8.372;2023-12-29T16:55:59;100286.48;;;12.29;61.80
12073;BME280;6098;49.004;8.372;2023-12-29T17:10:50;100284.77;;;12.28;61.82
12073;BME280;6098;49.004;8.372;2023-12-29T17:25:49;100279.61;;;12.25;61.82
12073;BME280;6098;49.004;8.372;2023-12-29T17:40:52;100271.02;;;12.19;61.45
12073;BME280;6098;49.004;8.372;2023-12-29T17:55:44;100276.52;;;12.06;62.73
12073;BME280;6098;49.004;8.372;2023-12-29T18:10:35;100281.75;;;12.07;63.56
12073;BME280;6098;49.004;8.372;2023-12-29T18:25:27;100273.52;;;12.03;64.42
12073;BME280;6098;49.004;8.372;2023-12-29T18:40:18;100268.13;;;12.05;64.12
12073;BME280;6098;49.004;8.372;2023-12-29T18:55:09;100266.11;;;11.91;64.40
12073;BME280;6098;49.004;8.372;2023-12-29T19:10:00;100255.09;;;11.71;65.07
12073;BME280;6098;49.004;8.372;2023-12-29T19:24:51;100247.41;;;11.55;65.74
12073;BME280;6098;49.004;8.372;2023-12-29T19:39:43;100250.42;;;11.46;63.81
12073;BME280;6098;49.004;8.372;2023-12-29T19:54:34;100258.82;;;11.37;63.99
12073;BME280;6098;49.004;8.372;2023-12-29T20:09:25;100251.22;;;11.48;64.03
12073;BME280;6098;49.004;8.372;2023-12-29T20:24:17;100240.95;;;11.70;63.99
12073;BME280;6098;49.004;8.372;2023-12-29T20:39:10;100273.27;;;11.80;64.26
12073;BME280;6098;49.004;8.372;2023-12-29T20:54:00;100273.20;;;11.61;64.77
12073;BME280;6098;49.004;8.372;2023-12-29T21:08:52;100256.19;;;11.46;65.42
12073;BME280;6098;49.004;8.372;2023-12-29T21:23:43;100238.00;;;11.38;66.13
12073;BME280;6098;49.004;8.372;2023-12-29T21:38:35;100263.89;;;11.52;65.57
12073;BME280;6098;49.004;8.372;2023-12-29T21:53:25;100267.45;;;11.61;65.35
12073;BME280;6098;49.004;8.372;2023-12-29T22:08:17;100270.22;;;11.49;68.40
12073;BME280;6098;49.004;8.372;2023-12-29T22:23:07;100253.42;;;11.39;68.43
12073;BME280;6098;49.004;8.372;2023-12-29T22:37:59;100247.98;;;11.22;70.84
12073;BME280;6098;49.004;8.372;2023-12-29T22:52:49;100251.16;;;11.20;72.38
12073;BME280;6098;49.004;8.372;2023-12-29T23:07:40;100250.23;;;11.11;73.11
12073;BME280;6098;49.004;8.372;2023-12-29T23:22:31;100262.58;;;11.22;72.48
12073;BME280;6098;49.004;8.372;2023-12-29T23:37:23;100285.50;;;11.34;71.48
12073;BME280;6098;49.004;8.372;2023-12-29T23:52:14;100277.23;;;11.40;71.06
